• Join FlightAware (Why Join?)
  • Login
  • US Flag 
03:09PM EDT


 

Airport Tracker/Info


-or-


 

Live Flight TrackerFlight Track Log ✈ SKQ225 ✈ 16-Aug-2013 ✈ KSDF - KOSU

Flight Track Log - Related Links

Times and Time Zones

All times are in EDT time to prevent confusion due to time zone crossing. See the SKQ225 flight status page for this flight to view local times or setup timezone preferences in your user account.

Time Position Orientation Groundspeed Altitude Reporting Facility
EDT Latitude Longitude Course Direction KTS MPH feet Rate Location/Type
04:48AM 38.2167 -85.6500 38° Northeast 130 150 3,100  Level Louisville TRACON
04:49AM 38.2258 -85.6322 57° Northeast 131 151 3,300 540 Climbing Indianapolis Center
04:50AM 38.2539 -85.5947 46° Northeast 136 157 4,000 780 Climbing Indianapolis Center
04:51AM 38.2864 -85.5492 48° Northeast 148 170 4,900 720 Climbing Indianapolis Center
04:52AM 38.3242 -85.5115 44° Northeast  Level FlightAware Approximate
04:52AM 38.3136 -85.5139 45° Northeast 154 177 5,500  Level Indianapolis Center
04:53AM 38.3602 -85.4731 38° Northeast  Level FlightAware Approximate
04:53AM 38.3458 -85.4725 45° Northeast 162 186 6,400  Level Indianapolis Center
04:54AM 38.3767 -85.4300 47° Northeast 162 186 7,000 240 Climbing Indianapolis Center
04:55AM 38.4131 -85.3817 46° Northeast 180 207 7,000  Level Indianapolis Center
04:56AM 38.4606 -85.3167 47° Northeast 204 235 7,000  Level Indianapolis Center
04:57AM 38.4986 -85.2658 46° Northeast 199 229 7,000  Level Indianapolis Center
04:58AM 38.5369 -85.2158 46° Northeast 197 227 7,000  Level Indianapolis Center
04:59AM 38.5697 -85.1717 46° Northeast 200 230 7,000  Level Indianapolis Center
05:00AM 38.6122 -85.1144 46° Northeast 192 221 7,000  Level Indianapolis Center
05:01AM 38.6511 -85.0619 47° Northeast 194 223 7,000  Level Indianapolis Center
05:02AM 38.6883 -85.0128 46° Northeast 193 222 7,000  Level Indianapolis Center
05:03AM 38.7256 -84.9628 46° Northeast 194 223 7,000  Level Indianapolis Center
05:04AM 38.7622 -84.9128 47° Northeast 193 222 7,000  Level Indianapolis Center
05:05AM 38.7975 -84.8617 48° Northeast 193 222 7,000  Level Indianapolis Center
05:06AM 38.8358 -84.8114 46° Northeast 197 227 7,100  Climbing Indianapolis Center
05:07AM 38.8731 -84.7608 47° Northeast 197 227 7,000 -60 Descending Indianapolis Center
05:08AM 38.9111 -84.7119 45° Northeast 195 224 7,000  Level Indianapolis Center
05:09AM 38.9481 -84.6603 47° Northeast 195 224 7,000  Level Indianapolis Center
05:10AM 38.9844 -84.6089 48° Northeast 193 222 7,000  Level Indianapolis Center
05:11AM 39.0211 -84.5583 47° Northeast 193 222 7,000  Level Indianapolis Center
05:12AM 39.0583 -84.5078 47° Northeast 192 221 7,000  Level Indianapolis Center
05:13AM 39.0947 -84.4575 47° Northeast 191 220 7,000  Level Indianapolis Center
05:14AM 39.1308 -84.4069 47° Northeast 192 221 7,000  Level Indianapolis Center
05:15AM 39.1669 -84.3572 47° Northeast 189 217 7,000  Level Indianapolis Center
05:16AM 39.2069 -84.3058 45° Northeast 189 217 7,000  Level Indianapolis Center
05:17AM 39.2442 -84.2531 48° Northeast 191 220 7,000  Level Indianapolis Center
05:18AM 39.2814 -84.2000 48° Northeast 192 221 7,000  Level Indianapolis Center
05:19AM 39.3161 -84.1492 49° Northeast 192 221 7,000  Level Indianapolis Center
05:20AM 39.3506 -84.1039 45° Northeast 190 219 7,000  Level Indianapolis Center
05:21AM 39.3872 -84.0561 45° Northeast 190 219 7,000  Level Indianapolis Center
05:22AM 39.4219 -84.0053 49° Northeast 191 220 7,000  Level Indianapolis Center
05:23AM 39.4614 -83.9497 47° Northeast 191 220 7,000  Level Indianapolis Center
05:24AM 39.4958 -83.9014 47° Northeast 190 219 7,100  Climbing Indianapolis Center
05:25AM 39.5328 -83.8506 47° Northeast 191 220 7,100 -60 Level Indianapolis Center
05:26AM 39.5694 -83.8000 47° Northeast 191 220 7,000 -60 Descending Indianapolis Center
05:27AM 39.6064 -83.7492 47° Northeast 189 217 7,000 -60 Level Indianapolis Center
05:28AM 39.6408 -83.6981 49° Northeast 192 221 6,900 -240 Descending Indianapolis Center
05:29AM 39.6781 -83.6444 48° Northeast 195 224 6,600 -360 Descending Indianapolis Center
05:30AM 39.7147 -83.5933 47° Northeast 194 223 6,200 -360 Descending Indianapolis Center
05:31AM 39.7514 -83.5425 47° Northeast 191 220 5,900 -360 Descending Indianapolis Center
05:32AM 39.7858 -83.4911 49° Northeast 187 215 5,500 -420 Descending Indianapolis Center
05:33AM 39.8250 -83.4350 48° Northeast 186 214 5,100 -480 Descending Indianapolis Center
05:34AM 39.8569 -83.3886 48° Northeast 187 215 4,600 -480 Descending Indianapolis Center
05:35AM 39.8908 -83.3450 45° Northeast 186 214 4,200 -420 Descending Indianapolis Center
05:37AM 39.9201 -83.2784 49° Northeast  Level FlightAware Approximate
05:44AM 40.0667 -83.0667 37° Northeast  Level FlightAware Approximate
05:45AM 40.0798 -83.0732 37° Northeast  Level Estimated
05:46AM 40.0798 -83.0732 37° Northeast  Level Estimated